Time;durP1;ratioP1;P1;durP2;ratioP2;P2;SDS_P1;SDS_P2;PMS_P1;PMS_P2;Temp;Humidity;BMP_temperature;BMP_pressure;BME280_temperature;BME280_humidity;BME280_pressure;Samples;Min_cycle;Max_cycle;Signal;HPM_P1;HPM_P2
2023/08/11 00:00:23;;;;;;;;;10.50;10.50;;;;;23.85;59.04;101539.78;4998237;28;45263;-42
2023/08/11 00:02:52;;;;;;;;;10.00;9.80;;;;;23.86;59.48;101546.88;4998386;28;45362;-42
2023/08/11 00:05:18;;;;;;;;;9.80;9.80;;;;;23.88;59.13;101558.34;4997945;28;46763;-44
2023/08/11 00:07:50;;;;;;;;;11.60;11.60;;;;;23.86;59.25;101546.88;4997919;28;45337;-44
2023/08/11 00:10:17;;;;;;;;;10.60;9.80;;;;;23.78;59.10;101544.38;4998143;28;45317;-42
2023/08/11 00:12:42;;;;;;;;;11.00;8.80;;;;;23.77;59.10;101547.34;4998165;28;45459;-46
2023/08/11 00:15:08;;;;;;;;;12.50;11.50;;;;;23.72;59.26;101542.50;4997860;28;47154;-44
2023/08/11 00:17:33;;;;;;;;;9.50;8.75;;;;;23.67;59.21;101530.63;4997795;28;45289;-47
2023/08/11 00:19:59;;;;;;;;;11.75;9.00;;;;;23.70;59.51;101549.22;4997789;28;45282;-47
2023/08/11 00:22:24;;;;;;;;;11.00;11.00;;;;;23.67;59.61;101542.31;4998046;28;45333;-43
2023/08/11 00:24:50;;;;;;;;;11.50;10.00;;;;;23.67;59.23;101541.50;4997610;28;46432;-46
2023/08/11 00:27:15;;;;;;;;;11.00;11.00;;;;;23.64;59.49;101546.28;4997733;28;45432;-41
2023/08/11 00:29:40;;;;;;;;;11.50;9.25;;;;;23.61;59.57;101544.00;4997818;28;45425;-50
2023/08/11 00:32:06;;;;;;;;;13.50;11.00;;;;;23.60;60.25;101542.34;4997894;28;45523;-48
2023/08/11 00:34:31;;;;;;;;;9.75;7.50;;;;;23.54;60.00;101537.75;4997617;28;45507;-46
2023/08/11 00:36:57;;;;;;;;;10.00;10.00;;;;;23.52;59.77;101523.56;4997357;28;45524;-46
2023/08/11 00:39:23;;;;;;;;;10.75;9.50;;;;;23.54;60.25;101536.91;4997996;28;45341;-42
2023/08/11 00:41:48;;;;;;;;;11.50;9.50;;;;;23.54;59.75;101545.88;4997733;28;45411;-43
2023/08/11 00:44:13;;;;;;;;;9.25;9.25;;;;;23.52;60.05;101539.03;4997326;28;45440;-46
2023/08/11 00:46:42;;;;;;;;;10.75;10.00;;;;;23.48;60.02;101532.34;4997276;28;45294;-43
2023/08/11 00:49:09;;;;;;;;;12.20;12.20;;;;;23.47;59.92;101528.78;4997545;28;45532;-48
2023/08/11 00:51:35;;;;;;;;;12.40;10.20;;;;;23.38;59.96;101520.00;4997551;28;45747;-42
2023/08/11 00:54:01;;;;;;;;;9.60;9.60;;;;;23.36;60.17;101535.69;4997585;28;45360;-45
2023/08/11 00:56:27;;;;;;;;;11.00;11.00;;;;;23.31;60.85;101527.38;4997288;28;45610;-42
2023/08/11 00:58:53;;;;;;;;;8.50;8.50;;;;;23.33;60.41;101527.13;4997345;28;45278;-44
2023/08/11 01:01:18;;;;;;;;;11.80;11.00;;;;;23.34;60.95;101531.50;4997673;28;45358;-44
2023/08/11 01:03:47;;;;;;;;;11.75;10.75;;;;;23.26;60.48;101526.31;4997191;28;45325;-47
2023/08/11 01:06:28;;;;;;;;;10.80;10.80;;;;;23.28;60.54;101537.81;4997174;28;45415;-45
2023/08/11 01:09:11;;;;;;;;;12.60;9.40;;;;;23.20;60.33;101516.31;4996302;28;45317;-42
2023/08/11 01:11:39;;;;;;;;;11.20;9.00;;;;;23.26;60.82;101534.44;4997353;28;45384;-42
2023/08/11 01:14:14;;;;;;;;;15.80;12.00;;;;;23.12;60.49;101512.75;4997018;28;47259;-42
2023/08/11 01:16:40;;;;;;;;;9.80;9.80;;;;;23.24;60.80;101529.25;4996951;28;45468;-43
2023/08/11 01:19:07;;;;;;;;;9.60;6.40;;;;;23.13;60.58;101522.59;4995734;28;45225;-41
2023/08/11 01:21:39;;;;;;;;;11.60;10.40;;;;;23.08;60.94;101521.53;4996917;28;45560;-45
2023/08/11 01:24:05;;;;;;;;;10.20;9.80;;;;;23.05;61.48;101521.94;4996834;28;46067;-44
2023/08/11 01:26:31;;;;;;;;;13.20;9.60;;;;;23.03;61.28;101538.44;4996808;28;45267;-46
2023/08/11 01:28:56;;;;;;;;;13.60;9.80;;;;;23.01;61.10;101537.84;4996778;28;45358;-44
2023/08/11 01:31:21;;;;;;;;;11.00;9.00;;;;;23.04;61.21;101545.53;4997324;28;45243;-43
2023/08/11 01:33:47;;;;;;;;;8.00;8.00;;;;;23.01;61.43;101539.72;4996451;28;46260;-43
2023/08/11 01:36:12;;;;;;;;;8.00;8.00;;;;;22.99;61.40;101555.38;4996518;28;45377;-42
2023/08/11 01:38:37;;;;;;;;;8.00;8.00;;;;;22.98;61.48;101549.09;4996620;28;45355;-42
2023/08/11 01:41:03;;;;;;;;;9.25;9.00;;;;;22.87;61.68;101550.53;4997211;28;45831;-43
2023/08/11 01:43:29;;;;;;;;;7.25;7.25;;;;;22.94;61.28;101556.00;4996499;28;46366;-40
2023/08/11 01:45:56;;;;;;;;;9.00;9.00;;;;;22.84;61.41;101553.69;4996581;28;45456;-42
2023/08/11 01:48:22;;;;;;;;;13.20;10.40;;;;;22.84;61.37;101560.97;4996473;28;45318;-39
2023/08/11 01:50:47;;;;;;;;;12.00;9.50;;;;;22.80;61.57;101551.59;4996791;28;45444;-43
2023/08/11 01:53:13;;;;;;;;;12.00;10.25;;;;;22.80;61.63;101563.28;4996417;28;46051;-42
2023/08/11 01:55:40;;;;;;;;;8.00;8.00;;;;;22.72;61.74;101558.03;4996347;28;45350;-38
2023/08/11 01:58:06;;;;;;;;;9.80;9.20;;;;;22.77;62.03;101557.41;4996474;28;45484;-42
2023/08/11 02:00:31;;;;;;;;;9.50;8.50;;;;;22.74;61.62;101571.38;4996668;28;45455;-41
2023/08/11 02:02:58;;;;;;;;;8.75;8.75;;;;;22.77;61.79;101570.97;4996133;28;47619;-42
2023/08/11 02:05:24;;;;;;;;;8.60;8.60;;;;;22.78;61.57;101569.94;4996112;28;45316;-41
2023/08/11 02:07:51;;;;;;;;;10.60;9.20;;;;;22.76;61.97;101562.00;4996072;28;45413;-42
2023/08/11 02:10:16;;;;;;;;;10.00;8.00;;;;;22.51;61.63;101518.38;4996591;28;45392;-39
2023/08/11 02:12:42;;;;;;;;;8.25;8.00;;;;;22.75;61.59;101554.91;4995852;28;46311;-39
2023/08/11 02:15:08;;;;;;;;;9.75;9.50;;;;;22.75;61.78;101563.03;4996371;28;46164;-40
2023/08/11 02:17:34;;;;;;;;;9.80;9.00;;;;;22.72;61.58;101559.94;4995954;28;45399;-45
2023/08/11 02:20:06;;;;;;;;;8.00;8.00;;;;;22.67;61.93;101547.81;4996221;28;45346;-45
2023/08/11 02:22:32;;;;;;;;;9.40;8.20;;;;;22.73;61.77;101556.16;4995944;28;46368;-43
2023/08/11 02:24:57;;;;;;;;;10.00;7.75;;;;;22.68;61.96;101554.06;4996042;28;45407;-42
2023/08/11 02:27:22;;;;;;;;;11.00;11.00;;;;;22.64;61.85;101553.66;4996209;28;45440;-42
2023/08/11 02:29:49;;;;;;;;;8.50;8.50;;;;;22.62;61.77;101555.72;4996193;28;45331;-46
2023/08/11 02:32:14;;;;;;;;;12.00;10.80;;;;;22.60;62.39;101548.84;4994698;28;45540;-44
2023/08/11 02:34:41;;;;;;;;;8.00;7.25;;;;;22.62;62.17;101554.88;4996106;28;45385;-45
2023/08/11 02:37:06;;;;;;;;;9.80;9.80;;;;;22.53;62.17;101543.41;4995802;28;45452;-46
2023/08/11 02:39:32;;;;;;;;;10.25;9.75;;;;;22.60;62.80;101551.56;4996283;28;45350;-46
2023/08/11 02:41:57;;;;;;;;;11.00;10.25;;;;;22.58;62.45;101553.63;4995730;28;45491;-47
2023/08/11 02:44:23;;;;;;;;;15.00;10.00;;;;;22.57;63.13;101551.97;4995927;28;45626;-44
2023/08/11 02:46:48;;;;;;;;;11.00;9.00;;;;;22.56;62.87;101553.84;4996336;28;46505;-42
2023/08/11 02:49:13;;;;;;;;;13.00;9.00;;;;;22.55;63.07;101549.47;4995900;28;45398;-47
2023/08/11 02:51:39;;;;;;;;;6.50;4.50;;;;;22.52;63.16;101549.88;4995450;28;46513;-43
2023/08/11 02:54:04;;;;;;;;;12.75;9.50;;;;;22.50;63.53;101557.41;4995632;28;45377;-46
2023/08/11 02:56:29;;;;;;;;;10.50;10.25;;;;;22.47;63.53;101556.97;4995929;28;45389;-42
2023/08/11 02:58:56;;;;;;;;;11.00;11.00;;;;;22.42;63.56;101553.00;4996007;28;45422;-43
2023/08/11 03:01:25;;;;;;;;;11.80;11.60;;;;;22.39;64.02;101553.41;4995533;28;46596;-47
2023/08/11 03:03:50;;;;;;;;;14.40;12.60;;;;;22.40;63.67;101556.94;4995675;28;45255;-42
2023/08/11 03:06:16;;;;;;;;;12.50;12.50;;;;;22.40;63.39;101559.66;4995677;28;45175;-42
2023/08/11 03:08:41;;;;;;;;;14.50;14.50;;;;;22.42;63.74;101555.69;4995319;28;45345;-45
2023/08/11 03:11:06;;;;;;;;;13.75;11.75;;;;;22.44;63.67;101551.94;4995487;28;46234;-47
2023/08/11 03:13:32;;;;;;;;;18.50;17.00;;;;;22.41;63.31;101551.31;4995675;28;45463;-43
2023/08/11 03:15:58;;;;;;;;;29.50;22.25;;;;;22.39;63.90;101552.56;4995532;28;45458;-45
2023/08/11 03:18:24;;;;;;;;;19.25;15.75;;;;;22.37;63.50;101557.34;4995759;28;45476;-45
2023/08/11 03:20:52;;;;;;;;;29.50;24.75;;;;;22.19;63.81;101540.81;4995038;28;47224;-45
2023/08/11 03:23:18;;;;;;;;;27.50;23.25;;;;;22.36;63.68;101558.38;4995344;28;45496;-46
2023/08/11 03:25:43;;;;;;;;;24.25;23.50;;;;;22.35;64.03;101557.56;4995253;28;45290;-44
2023/08/11 03:28:09;;;;;;;;;29.75;24.00;;;;;22.37;63.93;101565.47;4995310;28;45401;-43
2023/08/11 03:30:35;;;;;;;;;25.50;21.00;;;;;22.36;63.98;101563.81;4995652;28;47178;-44
2023/08/11 03:33:00;;;;;;;;;25.00;19.50;;;;;22.13;64.01;101527.06;4998704;28;45421;-41
2023/08/11 03:35:25;;;;;;;;;21.25;18.25;;;;;22.33;64.08;101561.50;4998986;28;45349;-43
2023/08/11 03:37:51;;;;;;;;;16.50;14.25;;;;;22.33;64.26;101569.63;4998590;28;45317;-42
2023/08/11 03:40:16;;;;;;;;;19.00;18.00;;;;;22.28;63.96;101553.97;4998740;28;46298;-45
2023/08/11 03:42:42;;;;;;;;;16.75;14.75;;;;;22.31;64.28;101567.13;4998313;28;45446;-41
2023/08/11 03:45:12;;;;;;;;;14.00;14.00;;;;;22.27;64.11;101557.75;4998489;28;45396;-41
2023/08/11 03:47:39;;;;;;;;;16.75;14.25;;;;;22.32;64.15;101557.13;4998786;28;45282;-42
2023/08/11 03:50:06;;;;;;;;;16.00;13.00;;;;;22.31;63.95;101558.16;4998135;28;46170;-46
2023/08/11 03:52:31;;;;;;;;;13.80;12.80;;;;;22.29;64.07;101560.22;4998327;28;45343;-41
2023/08/11 03:54:57;;;;;;;;;16.00;11.25;;;;;22.27;63.94;101541.47;4998478;28;45294;-42
2023/08/11 03:57:22;;;;;;;;;14.50;10.50;;;;;22.28;64.23;101548.56;4998503;28;45404;-44
2023/08/11 03:59:48;;;;;;;;;13.50;11.50;;;;;22.25;64.40;101548.13;4998259;28;45621;-41
2023/08/11 04:02:13;;;;;;;;;13.00;12.25;;;;;22.19;64.60;101547.06;4997890;28;45343;-43
2023/08/11 04:04:38;;;;;;;;;12.25;12.25;;;;;22.11;64.79;101545.34;4998348;28;45368;-43
2023/08/11 04:07:05;;;;;;;;;9.00;9.00;;;;;22.05;65.15;101537.22;4998001;28;45404;-42
2023/08/11 04:09:31;;;;;;;;;9.80;9.80;;;;;22.00;65.08;101534.28;4997945;28;46081;-43
2023/08/11 04:11:56;;;;;;;;;14.00;11.40;;;;;21.98;65.25;101530.94;4998231;28;45424;-41
2023/08/11 04:14:22;;;;;;;;;12.25;10.00;;;;;22.03;65.18;101542.81;4998110;28;45342;-43
2023/08/11 04:16:47;;;;;;;;;9.25;9.00;;;;;21.95;65.52;101539.44;4998334;28;45407;-41
2023/08/11 04:19:13;;;;;;;;;10.75;10.00;;;;;21.97;65.55;101540.09;4997789;28;46974;-42
2023/08/11 04:21:40;;;;;;;;;11.50;11.50;;;;;21.90;65.65;101531.94;4997912;28;45366;-44
2023/08/11 04:24:06;;;;;;;;;12.50;12.50;;;;;21.85;65.34;101520.88;4997892;28;45420;-42
2023/08/11 04:26:33;;;;;;;;;13.25;10.00;;;;;21.93;65.55;101529.66;4998288;28;45569;-41
2023/08/11 04:29:00;;;;;;;;;10.75;10.00;;;;;21.95;65.99;101531.31;4997601;28;46649;-41
2023/08/11 04:31:25;;;;;;;;;13.00;11.40;;;;;21.90;66.01;101535.47;4997643;28;45364;-42
2023/08/11 04:33:50;;;;;;;;;15.75;14.50;;;;;21.82;66.18;101532.94;4997823;28;45248;-43
2023/08/11 04:36:15;;;;;;;;;10.25;10.00;;;;;21.80;65.82;101540.44;4995782;28;45444;-40
2023/08/11 04:38:41;;;;;;;;;13.50;12.00;;;;;21.79;66.40;101535.25;4997537;28;47149;-41
2023/08/11 04:41:06;;;;;;;;;13.75;12.75;;;;;21.79;66.38;101540.66;4997596;28;45430;-46
2023/08/11 04:43:32;;;;;;;;;14.25;11.25;;;;;21.81;66.49;101535.84;4997795;28;45636;-45
2023/08/11 04:45:57;;;;;;;;;13.25;12.00;;;;;21.77;66.10;101540.84;4997352;28;45471;-47
2023/08/11 04:48:22;;;;;;;;;14.00;13.50;;;;;21.74;66.69;101543.94;4997465;28;45531;-46
2023/08/11 04:50:51;;;;;;;;;16.25;12.25;;;;;21.72;66.39;101542.50;4997416;28;45190;-43
2023/08/11 04:53:17;;;;;;;;;11.60;10.00;;;;;21.62;67.43;101527.44;4997314;28;45425;-41
2023/08/11 04:55:43;;;;;;;;;13.00;13.00;;;;;21.61;67.23;101541.16;4997632;28;45466;-43
2023/08/11 04:58:09;;;;;;;;;13.00;13.00;;;;;21.67;66.96;101546.63;4997152;28;45728;-42
2023/08/11 05:00:34;;;;;;;;;15.00;13.75;;;;;21.68;66.93;101539.34;4997325;28;45476;-42
2023/08/11 05:03:00;;;;;;;;;10.00;10.00;;;;;21.58;67.33;101533.47;4997375;28;45420;-44
2023/08/11 05:05:26;;;;;;;;;14.25;12.00;;;;;21.55;67.87;101542.81;4997453;28;45390;-43
2023/08/11 05:07:51;;;;;;;;;16.50;14.25;;;;;21.60;67.82;101548.47;4996696;28;46205;-44
2023/08/11 05:10:17;;;;;;;;;15.25;11.75;;;;;21.59;67.29;101541.38;4995715;28;45371;-44
2023/08/11 05:12:45;;;;;;;;;13.00;12.75;;;;;21.57;67.51;101539.91;4997223;28;45326;-42
2023/08/11 05:15:11;;;;;;;;;18.75;13.75;;;;;21.56;67.75;101538.22;4995931;28;45552;-42
2023/08/11 05:17:36;;;;;;;;;11.75;11.75;;;;;21.60;67.68;101548.47;4996778;28;47441;-43
2023/08/11 05:20:05;;;;;;;;;13.25;13.25;;;;;21.55;67.73;101533.84;4996825;28;45239;-42
2023/08/11 05:22:34;;;;;;;;;9.50;9.50;;;;;21.60;67.72;101544.91;4997199;28;45723;-46
2023/08/11 05:25:03;;;;;;;;;12.25;10.00;;;;;21.55;67.72;101534.69;4997174;28;45632;-47
2023/08/11 05:27:28;;;;;;;;;15.75;13.25;;;;;21.60;67.76;101545.75;4996629;28;45879;-40
2023/08/11 05:29:53;;;;;;;;;13.75;11.25;;;;;21.60;67.79;101544.91;4996680;28;45408;-46
2023/08/11 05:32:19;;;;;;;;;14.50;11.50;;;;;21.60;67.32;101545.75;4996805;28;45335;-44
2023/08/11 05:34:45;;;;;;;;;14.25;12.25;;;;;21.62;67.60;101548.28;4997125;28;45379;-45
2023/08/11 05:37:10;;;;;;;;;14.50;14.00;;;;;21.65;67.49;101545.16;4996589;28;47273;-43
2023/08/11 05:39:38;;;;;;;;;13.25;12.75;;;;;21.64;67.14;101540.78;4996465;28;45467;-41
2023/08/11 05:42:05;;;;;;;;;12.00;12.00;;;;;21.64;67.38;101541.59;4996814;28;45440;-42
2023/08/11 05:44:30;;;;;;;;;14.25;12.00;;;;;21.62;67.91;101549.09;4997080;28;45406;-43
2023/08/11 05:46:55;;;;;;;;;19.50;15.00;;;;;21.60;67.69;101559.28;4996352;28;46308;-46
2023/08/11 05:49:21;;;;;;;;;13.00;13.00;;;;;21.62;67.82;101557.22;4996424;28;45427;-42
2023/08/11 05:51:46;;;;;;;;;15.25;10.50;;;;;21.60;67.55;101548.47;4996726;28;45562;-46
2023/08/11 05:54:11;;;;;;;;;15.00;12.25;;;;;21.62;67.60;101545.56;4995797;28;45424;-41
2023/08/11 05:56:37;;;;;;;;;16.25;13.00;;;;;21.68;67.59;101561.84;4996207;28;49195;-46
2023/08/11 05:59:02;;;;;;;;;12.50;11.00;;;;;21.73;67.34;101558.53;4996837;28;45218;-41
2023/08/11 06:01:27;;;;;;;;;12.50;11.50;;;;;21.83;67.36;101555.47;4996411;28;45297;-44
2023/08/11 06:03:53;;;;;;;;;13.25;11.50;;;;;21.90;67.17;101559.84;4996669;28;45846;-43
2023/08/11 06:06:19;;;;;;;;;13.75;11.50;;;;;21.94;66.71;101557.59;4995909;28;45569;-42
2023/08/11 06:08:45;;;;;;;;;14.00;11.75;;;;;21.91;67.04;101557.97;4996288;28;45471;-43
2023/08/11 06:11:11;;;;;;;;;19.50;12.50;;;;;21.91;66.87;101563.41;4996318;28;45449;-44
2023/08/11 06:13:36;;;;;;;;;15.25;14.00;;;;;21.99;66.89;101570.53;4995108;28;45417;-43
2023/08/11 06:16:01;;;;;;;;;15.75;13.75;;;;;22.04;66.78;101568.06;4996203;28;46318;-45
2023/08/11 06:18:27;;;;;;;;;14.50;12.75;;;;;22.09;66.33;101557.44;4995966;28;45276;-42
2023/08/11 06:20:53;;;;;;;;;15.00;13.00;;;;;22.15;66.56;101565.63;4996167;28;45812;-49
2023/08/11 06:23:18;;;;;;;;;16.50;13.00;;;;;22.29;65.87;101568.38;4996450;28;45156;-40
2023/08/11 06:25:44;;;;;;;;;15.75;13.50;;;;;22.36;65.70;101552.97;4995936;28;47161;-39
2023/08/11 06:28:09;;;;;;;;;12.50;12.00;;;;;22.39;65.84;101556.09;4995925;28;45246;-41
2023/08/11 06:30:34;;;;;;;;;17.25;16.00;;;;;22.37;65.95;101565.47;4996434;28;45431;-41
2023/08/11 06:33:00;;;;;;;;;14.00;12.75;;;;;22.36;65.73;101556.50;4996470;28;45614;-41
2023/08/11 06:35:25;;;;;;;;;20.00;16.75;;;;;22.44;65.61;101563.63;4995764;28;46078;-40
2023/08/11 06:37:51;;;;;;;;;12.75;12.75;;;;;22.46;66.01;101566.13;4995932;28;45391;-40
2023/08/11 06:40:16;;;;;;;;;12.50;12.50;;;;;22.49;65.58;101563.00;4995788;28;45429;-41
2023/08/11 06:42:41;;;;;;;;;18.25;15.00;;;;;22.62;65.36;101565.72;4994866;28;45534;-42
2023/08/11 06:45:07;;;;;;;;;15.50;12.50;;;;;22.75;65.12;101568.47;4994451;28;46086;-43
2023/08/11 06:47:35;;;;;;;;;14.75;14.75;;;;;22.83;64.68;101568.25;4995884;28;45310;-40
2023/08/11 06:50:03;;;;;;;;;20.00;18.00;;;;;22.93;64.71;101572.50;4995751;28;45436;-39
2023/08/11 06:52:28;;;;;;;;;16.25;13.75;;;;;23.00;64.77;101565.16;4995940;28;45487;-40
2023/08/11 06:54:53;;;;;;;;;14.25;13.75;;;;;23.10;64.36;101574.56;4995661;28;45310;-41
2023/08/11 06:57:20;;;;;;;;;16.00;14.25;;;;;23.14;63.91;101570.41;4995633;28;45357;-42
2023/08/11 06:59:46;;;;;;;;;14.40;13.60;;;;;23.40;63.89;101574.97;4995676;28;45278;-41
2023/08/11 07:02:11;;;;;;;;;24.00;20.25;;;;;23.61;63.15;101586.63;4995820;28;45705;-39
2023/08/11 07:04:37;;;;;;;;;15.00;11.50;;;;;23.89;62.84;101584.50;4995621;28;46512;-45
2023/08/11 07:07:02;;;;;;;;;15.50;13.75;;;;;24.27;61.92;101583.69;4997994;28;45226;-43
2023/08/11 07:09:28;;;;;;;;;12.25;12.25;;;;;24.71;60.74;101586.59;4998900;28;45381;-42
2023/08/11 07:11:53;;;;;;;;;18.00;14.25;;;;;25.35;58.53;101582.75;4999289;28;45606;-43
2023/08/11 07:14:18;;;;;;;;;10.00;10.00;;;;;25.99;57.51;101580.59;4997571;28;46610;-44
2023/08/11 07:16:44;;;;;;;;;9.00;9.00;;;;;26.57;56.07;101580.88;4998960;28;45420;-47
2023/08/11 07:19:09;;;;;;;;;15.25;12.25;;;;;26.69;55.15;101580.09;4998907;28;45353;-42
2023/08/11 07:21:34;;;;;;;;;9.00;7.00;;;;;27.00;54.55;101587.16;4998089;28;45378;-46
2023/08/11 07:24:00;;;;;;;;;13.00;10.75;;;;;27.39;53.23;101593.88;4998435;28;46858;-47
2023/08/11 07:26:25;;;;;;;;;13.25;10.75;;;;;27.85;52.85;101593.00;4998749;28;45574;-45
2023/08/11 07:28:50;;;;;;;;;12.25;8.00;;;;;28.25;52.27;101589.44;4998719;28;45480;-52
2023/08/11 07:31:16;;;;;;;;;7.75;7.75;;;;;28.87;51.63;101610.59;4998867;28;45342;-52
2023/08/11 07:33:42;;;;;;;;;8.00;8.00;;;;;29.51;49.54;101613.00;4998256;28;45344;-55
2023/08/11 07:36:08;;;;;;;;;6.40;5.00;;;;;30.10;47.80;101609.69;4998683;28;45402;-42
2023/08/11 07:38:33;;;;;;;;;9.00;7.00;;;;;30.26;48.83;101612.38;4998815;28;45411;-47
2023/08/11 07:40:58;;;;;;;;;7.00;7.00;;;;;30.28;47.43;101614.84;4998776;28;46032;-47
2023/08/11 07:43:24;;;;;;;;;6.00;6.00;;;;;30.16;47.56;101606.75;4998304;28;46387;-49
2023/08/11 07:45:49;;;;;;;;;7.00;7.00;;;;;30.21;48.02;101620.53;4998472;28;45317;-49
2023/08/11 07:48:15;;;;;;;;;9.00;9.00;;;;;30.31;47.63;101622.59;4998305;28;45348;-42
2023/08/11 07:50:41;;;;;;;;;8.40;7.00;;;;;31.23;45.81;101627.03;4998638;28;45398;-52
2023/08/11 07:53:06;;;;;;;;;8.25;6.75;;;;;32.64;43.23;101621.69;4998066;28;46659;-53
2023/08/11 07:55:32;;;;;;;;;8.50;7.00;;;;;33.78;40.69;101621.34;4998238;28;45428;-47
2023/08/11 07:57:57;;;;;;;;;8.00;8.00;;;;;34.69;39.23;101625.63;4998390;28;45401;-52
2023/08/11 08:00:25;;;;;;;;;9.00;9.00;;;;;35.53;37.80;101619.94;4998273;28;45280;-46
2023/08/11 08:02:52;;;;;;;;;8.80;8.80;;;;;36.31;36.79;101626.16;4998018;28;45408;-45
2023/08/11 08:05:17;;;;;;;;;9.80;8.80;;;;;37.11;35.43;101628.00;4998110;28;45409;-48
2023/08/11 08:07:43;;;;;;;;;10.75;9.00;;;;;37.76;34.02;101619.56;4998148;28;45306;-42
2023/08/11 08:10:08;;;;;;;;;8.00;6.25;;;;;38.89;31.97;101632.59;4996818;28;45459;-48
2023/08/11 08:12:36;;;;;;;;;9.50;7.75;;;;;39.99;31.23;101630.19;4997976;28;46579;-45
2023/08/11 08:15:02;;;;;;;;;9.40;7.60;;;;;40.96;30.04;101638.28;4996631;28;45498;-50
2023/08/11 08:17:27;;;;;;;;;8.60;8.60;;;;;41.54;28.54;101626.47;4997585;28;45373;-49
2023/08/11 08:19:53;;;;;;;;;9.00;8.50;;;;;41.85;27.82;101630.97;4996292;28;45299;-50
2023/08/11 08:22:18;;;;;;;;;10.00;8.25;;;;;42.60;27.26;101633.84;4997614;28;46414;-50
2023/08/11 08:24:44;;;;;;;;;9.00;8.50;;;;;43.29;26.61;101627.56;4997374;28;47946;-46
2023/08/11 08:27:09;;;;;;;;;6.50;6.50;;;;;43.33;26.70;101633.28;4997578;28;45464;-48
2023/08/11 08:29:34;;;;;;;;;9.00;9.00;;;;;44.06;25.26;101638.91;4998300;28;45423;-48
2023/08/11 08:32:00;;;;;;;;;10.25;8.50;;;;;44.62;24.06;101624.13;4997527;28;45537;-47
2023/08/11 08:34:25;;;;;;;;;9.50;9.50;;;;;44.77;24.39;101619.78;4997745;28;45335;-45
2023/08/11 08:36:50;;;;;;;;;9.00;9.00;;;;;44.84;24.24;101621.94;4997623;28;45708;-51
2023/08/11 08:39:16;;;;;;;;;8.25;8.00;;;;;45.22;23.98;101627.81;4997729;28;45447;-52
2023/08/11 08:41:46;;;;;;;;;7.75;7.75;;;;;45.74;23.45;101628.69;4997313;28;46453;-51
2023/08/11 08:44:12;;;;;;;;;9.20;9.00;;;;;46.40;22.75;101639.06;4997502;28;45353;-49
2023/08/11 08:46:38;;;;;;;;;7.00;7.00;;;;;46.70;22.17;101633.66;4997585;28;45278;-52
2023/08/11 08:49:14;;;;;;;;;9.20;8.20;;;;;47.06;22.08;101639.16;4997808;28;45456;-50
2023/08/11 08:51:40;;;;;;;;;9.80;9.20;;;;;47.46;21.46;101636.66;4997195;28;45714;-49
2023/08/11 08:54:09;;;;;;;;;8.00;8.00;;;;;47.57;21.93;101625.53;4997088;28;45440;-41
2023/08/11 08:56:40;;;;;;;;;11.40;10.20;;;;;47.11;21.03;101628.38;4997438;28;45342;-51
2023/08/11 08:59:06;;;;;;;;;12.00;8.80;;;;;46.75;22.32;101624.09;4996243;28;45430;-47
2023/08/11 09:01:33;;;;;;;;;9.40;8.00;;;;;46.60;22.00;101620.16;4997382;28;45570;-48
2023/08/11 09:03:59;;;;;;;;;9.00;7.40;;;;;46.93;21.44;101628.06;4996906;28;45349;-52
2023/08/11 09:06:26;;;;;;;;;9.50;9.25;;;;;47.11;21.67;101634.00;4997487;28;45346;-40
2023/08/11 09:08:52;;;;;;;;;7.20;7.20;;;;;47.26;21.68;101637.88;4973835;28;45425;-45
2023/08/11 09:11:18;;;;;;;;;8.75;8.50;;;;;47.27;21.44;101608.53;4993248;28;46274;-48
2023/08/11 09:13:44;;;;;;;;;8.60;7.60;;;;;47.20;21.28;101614.88;4993356;28;45473;-44
2023/08/11 09:16:11;;;;;;;;;8.40;7.00;;;;;47.18;22.58;101622.06;4993808;28;45335;-49
2023/08/11 09:18:36;;;;;;;;;7.20;6.60;;;;;47.16;21.59;101633.72;4993631;28;45579;-46
2023/08/11 09:21:02;;;;;;;;;10.00;8.75;;;;;47.31;21.60;101631.16;4994720;28;45868;-46
2023/08/11 09:23:28;;;;;;;;;9.00;7.25;;;;;46.53;21.21;101629.28;4994178;28;45495;-46
2023/08/11 09:25:56;;;;;;;;;7.60;7.40;;;;;45.86;22.05;101622.19;4993962;28;45464;-44
2023/08/11 09:28:21;;;;;;;;;6.20;5.80;;;;;45.59;23.52;101640.78;4993352;28;45418;-49
2023/08/11 09:30:48;;;;;;;;;7.50;6.75;;;;;45.28;23.19;101637.59;4994162;28;45359;-47
2023/08/11 09:33:13;;;;;;;;;7.20;7.20;;;;;44.99;23.13;101638.00;4994107;28;45444;-49
2023/08/11 09:35:41;;;;;;;;;8.50;7.50;;;;;44.93;23.72;101653.50;4994454;28;45198;-48
2023/08/11 09:38:07;;;;;;;;;6.80;6.80;;;;;45.05;22.91;101647.84;4994306;28;45473;-47
2023/08/11 09:40:32;;;;;;;;;9.80;8.40;;;;;45.09;22.92;101654.34;4994258;28;46230;-50
2023/08/11 09:42:57;;;;;;;;;9.25;8.00;;;;;45.23;22.68;101656.72;4993912;28;45791;-49
2023/08/11 09:45:23;;;;;;;;;8.25;7.50;;;;;45.34;23.19;101654.16;4994210;28;45411;-45
2023/08/11 09:47:49;;;;;;;;;7.60;7.00;;;;;45.22;23.23;101667.16;4994072;28;45463;-48
2023/08/11 09:50:15;;;;;;;;;6.40;6.00;;;;;44.95;22.96;101659.56;4993406;28;45429;-51
2023/08/11 09:52:42;;;;;;;;;7.00;6.75;;;;;44.93;23.83;101657.13;4993844;28;45620;-50
2023/08/11 09:55:09;;;;;;;;;6.40;6.40;;;;;44.49;23.80;101653.41;4993681;28;46385;-46
2023/08/11 09:57:36;;;;;;;;;5.40;5.40;;;;;44.50;23.89;101655.88;4994178;28;45484;-48
2023/08/11 10:00:03;;;;;;;;;4.20;4.20;;;;;45.01;23.03;101664.56;4994017;28;45498;-48
2023/08/11 10:02:31;;;;;;;;;6.80;6.80;;;;;45.40;22.65;101661.16;4993339;28;45478;-51
2023/08/11 10:05:03;;;;;;;;;7.60;7.60;;;;;45.76;22.07;101669.31;4993764;28;45334;-46
2023/08/11 10:07:34;;;;;;;;;6.40;6.40;;;;;45.87;22.39;101663.97;4993457;28;45413;-48
2023/08/11 10:10:03;;;;;;;;;8.00;7.40;;;;;46.02;22.08;101668.75;4993454;28;45502;-47
2023/08/11 10:12:29;;;;;;;;;6.40;5.00;;;;;45.52;21.88;101667.53;4993515;28;45452;-48
2023/08/11 10:14:55;;;;;;;;;8.00;6.25;;;;;44.67;23.08;101665.19;4993771;28;45461;-50
2023/08/11 10:17:22;;;;;;;;;10.40;8.80;;;;;43.56;23.93;101668.09;4993750;28;45459;-47
2023/08/11 10:19:47;;;;;;;;;7.60;6.40;;;;;42.41;25.10;101662.31;4993589;28;46825;-47
2023/08/11 10:22:13;;;;;;;;;9.25;7.25;;;;;41.37;26.58;101663.63;4992652;28;45469;-46
2023/08/11 10:24:40;;;;;;;;;9.50;7.75;;;;;40.70;27.44;101650.28;4993339;28;45460;-48
2023/08/11 10:27:06;;;;;;;;;9.00;7.40;;;;;40.46;27.99;101644.38;4993834;28;45810;-47
2023/08/11 10:29:33;;;;;;;;;10.00;6.20;;;;;40.51;27.67;101639.47;4993652;28;46896;-50
2023/08/11 10:31:59;;;;;;;;;5.80;5.80;;;;;41.21;27.46;101642.19;4993767;28;45336;-46
2023/08/11 10:34:25;;;;;;;;;8.00;8.00;;;;;42.14;26.13;101646.84;4993325;28;45318;-46
2023/08/11 10:36:55;;;;;;;;;7.00;6.00;;;;;43.10;25.66;101646.91;4993204;28;45447;-49
2023/08/11 10:39:22;;;;;;;;;5.00;4.20;;;;;43.88;24.50;101651.56;4993170;28;46671;-47
2023/08/11 10:41:48;;;;;;;;;4.00;3.80;;;;;44.62;23.79;101652.19;4996395;28;45393;-47
2023/08/11 10:44:18;;;;;;;;;7.60;4.80;;;;;45.33;23.44;101646.94;4996653;28;45378;-52
2023/08/11 10:46:45;;;;;;;;;6.60;6.60;;;;;45.97;23.04;101642.91;4997077;28;45428;-44
2023/08/11 10:49:13;;;;;;;;;5.60;5.00;;;;;46.17;22.23;101647.38;4996305;28;46536;-47
2023/08/11 10:51:40;;;;;;;;;4.40;4.40;;;;;46.28;22.42;101642.00;4996906;28;45464;-50
2023/08/11 10:54:06;;;;;;;;;6.00;5.80;;;;;46.00;22.98;101642.16;4996776;28;45433;-48
2023/08/11 10:56:33;;;;;;;;;10.75;5.25;;;;;45.81;22.07;101650.56;4996797;28;45463;-50
2023/08/11 10:59:11;;;;;;;;;9.00;7.00;;;;;45.64;21.93;101646.09;4996760;28;45290;-49
2023/08/11 11:01:41;;;;;;;;;5.00;4.80;;;;;45.82;22.25;101647.41;4996729;28;45584;-48
2023/08/11 11:04:07;;;;;;;;;3.20;3.20;;;;;46.04;21.77;101651.50;4996255;28;45263;-50
2023/08/11 11:06:34;;;;;;;;;6.00;5.20;;;;;46.28;20.96;101642.81;4997155;28;45288;-49
2023/08/11 11:08:59;;;;;;;;;7.40;6.20;;;;;46.65;20.95;101648.03;4996442;28;46378;-50
2023/08/11 11:11:25;;;;;;;;;3.75;3.75;;;;;45.90;21.28;101637.13;4995818;28;45522;-48